ADDS METAR Data INFO
IDs: Format: Raw Decoded Include TAF

Data at: 0751 UTC 23 Jul 2018

KIWA 230735Z AUTO 05003KT 10SM CLR 32/12 A2989 RMK AO2 T03220124
KIWA 230715Z AUTO 07003KT 10SM CLR 33/13 A2989 RMK AO2 T03310127
KIWA 230650Z 21005KT 20SM FEW250 33/13 A2990
KIWA 230550Z 24007KT 20SM FEW250 34/13 A2990
KIWA 230455Z 21007KT 20SM FEW250 35/11 A2991
KIWA 230347Z 22005KT 20SM SCT200 36/09 A2989
KIWA 230247Z 26008KT 20SM FEW250 39/09 A2987
KIWA 230147Z 29010KT 45SM FEW150 SCT200 41/08 A2986
KIWA 230051Z 26010KT 45SM FEW150 41/08 A2987
KIWA 222347Z 29014KT 45SM FEW150 41/09 A2988
KIWA 222250Z 32010G17KT 30SM FEW100 41/11 A2990
KIWA 222152Z 32008G15KT 45SM SKC 41/11 A2992
KIWA 222047Z 30011G17KT 45SM SKC 40/12 A2994
KIWA 221947Z 27008G16KT 45SM FEW120 39/12 A2997
KIWA 221850Z 33006KT 45SM FEW120 37/13 A2998 RMK TCU DSNT N-NE
KIWA 221754Z 23004KT 45SM SKC 36/15 A3000
KIWA 221647Z 27006KT 45SM SKC 34/16 A3001
KIWA 221549Z 24004KT 45SM SCT150 32/17 A3002
KIWA 221447Z 33005KT 45SM SCT150 /17 A3002
KIWA 221347Z 12003KT 45SM FEW250 27/16 A3000
KIWA 221258Z 08005KT 45SM SCT150 27/14 A3000
KIWA 221155Z 15005KT 20SM SCT200 28/15 A2997
KIWA 221135Z AUTO 21003KT 10SM CLR 28/15 A2997 RMK AO2 T02830145
KIWA 221115Z AUTO 00000KT 10SM CLR 29/14 A2997 RMK AO2 T02860142
KIWA 221055Z AUTO 20004KT 10SM CLR 28/14 A2997 RMK AO2 T02840142
KIWA 221035Z AUTO 17003KT 10SM CLR 29/14 A2997 RMK AO2 T02870141
KIWA 221015Z AUTO 00000KT 10SM CLR 29/15 A2996 RMK AO2 T02910148
KIWA 220955Z AUTO 13003KT 10SM CLR 29/14 A2997 RMK AO2 T02950141
KIWA 220935Z AUTO 00000KT 10SM CLR 31/14 A2996 RMK AO2 T03100136
KIWA 220915Z AUTO 00000KT 10SM CLR 31/14 A2996 RMK AO2 T03120137
KIWA 220855Z AUTO 00000KT 10SM CLR 32/14 A2996 RMK AO2 T03150138
KIWA 220835Z AUTO 00000KT 10SM CLR 31/13 A2997 RMK AO2 T03120134
KIWA 220815Z AUTO 00000KT 10SM CLR 31/14 A2997 RMK AO2 T03140135
KIWA 220755Z AUTO 32004KT 10SM CLR 32/14 A2997 RMK AO2 T03180135
KIWA 220735Z AUTO 32006KT 10SM CLR 32/13 A2997 RMK AO2 T03190131
KIWA 220715Z AUTO 33006KT 10SM CLR 32/13 A2997 RMK AO2 T03230132
KIWA 220647Z 33005KT 20SM SKC 32/13 A2997
KIWA 220547Z 30008KT 20SM SKC 34/14 A2996
KIWA 220448Z 29012KT 20SM SKC 34/15 A2996
KIWA 220347Z 29012KT 20SM SCT250 35/16 A2994
KIWA 220300Z 29012KT 20SM SCT250 36/16 A2992
KIWA 220157Z 27006KT 45SM SCT250 37/16 A2991
KIWA 220055Z 26010KT 45SM SCT250 37/17 A2990
KIWA 212352Z 26008KT 45SM FEW205 38/16 A2990 RMK CB DSNT N
KIWA 212248Z 28009G18KT 40SM SCT150 37/17 A2991 RMK TCU DSNT N-NE/ CB DSNT N
KIWA 212151Z 27006G16KT 45SM SCRT150 37/17 A2992 RMK TCU DSNT N-NE
KIWA 212047Z 28009G15KT 45SM SCT120 35/18 A2996 RMK TCU DSNT N-NE